Pagrindinis puslapis
METAR-TAF:

METAR-TAF

Oro uostai :

Pacific Missile Test Facility Barking Sands

Kekaha, Havajai, Jungtinės Amerikos Valstijos

platuma: 22-02-11N, ilguma: 159-47-11W, Aukštis: 4 m

Dabartinis oras

Ataskaita buvo paskelbta 42 minutes, ne 08:56 UTC
Vėjas 6 kt iš Rytų
Temperatūra 26°C
Drėgmė 74%
Slėgis 1013 hPa
Matomumas: 16.1 km
Mažai debesys ne aukštis 5000 ft

METAR: PHBK 180856Z AUTO 10006KT 10SM FEW050 26/21 A2991 RMK AO2 SLP132 T02610206 50008

Laikas: 23:38 (09:38 UTC)


TAF: trūkstamas

Orai ataskaitas ir orų prognozės (METAR, TAF).

turimą stotys yra geltonos ir raudonos taškus žemėlapyje.

Perkelti pele per norėdami pamatyti stoties vardą.

Tada spustelėkite, norėdami matyti oro stebėjimo ir prognozės.

Norėdami pakeisti žemėlapį: spustelėkite ant žalios mygtukų su juodo kryžiaus žemyn,; žalią mygtuką su brūkšneliu, jei norite nutolinti; arba žalių rodyklių gretimoms žemėlapius.


METAR-TAF: